Time;durP1;ratioP1;P1;durP2;ratioP2;P2;SDS_P1;SDS_P2;PMS_P1;PMS_P2;Temp;Humidity;BMP_temperature;BMP_pressure;BME280_temperature;BME280_humidity;BME280_pressure;Samples;Min_cycle;Max_cycle;Signal;HPM_P1;HPM_P2
2022/09/04 00:00:17;;;;;;;29.73;20.25;;;16.20;99.90;;;;;;5118005;28;20034;-58
2022/09/04 00:02:52;;;;;;;22.60;18.13;;;16.20;99.90;;;;;;5117828;28;20032;-58
2022/09/04 00:05:40;;;;;;;22.90;17.65;;;16.20;99.90;;;;;;5117967;28;20622;-57
2022/09/04 00:08:24;;;;;;;23.27;19.02;;;16.30;99.90;;;;;;5117735;28;20107;-58
2022/09/04 00:11:06;;;;;;;22.05;17.85;;;16.30;99.90;;;;;;5118104;28;20030;-58
2022/09/04 00:13:57;;;;;;;22.85;18.38;;;16.30;99.90;;;;;;5117621;28;20038;-58
2022/09/04 00:16:31;;;;;;;;;;;16.30;99.90;;;;;;5118288;28;20107;-58
2022/09/04 00:19:05;;;;;;;23.00;17.25;;;16.20;99.90;;;;;;5116594;28;19918;-58
2022/09/04 00:21:49;;;;;;;21.45;18.17;;;16.30;99.90;;;;;;5117621;28;20493;-57
2022/09/04 00:24:18;;;;;;;24.67;18.02;;;16.30;99.90;;;;;;5116874;28;20034;-58
2022/09/04 00:27:06;;;;;;;24.77;17.23;;;16.20;99.90;;;;;;5116326;28;20016;-58
2022/09/04 00:29:47;;;;;;;23.48;16.70;;;16.30;99.90;;;;;;5117652;28;20389;-58
2022/09/04 00:32:22;;;;;;;23.08;17.48;;;16.30;99.90;;;;;;5116191;28;20039;-58
2022/09/04 00:35:00;;;;;;;22.63;17.88;;;16.30;99.90;;;;;;5117394;28;20503;-58
2022/09/04 00:37:32;;;;;;;24.23;16.38;;;16.40;99.90;;;;;;5117456;28;20046;-58
2022/09/04 00:40:08;;;;;;;23.88;16.85;;;16.40;99.90;;;;;;5117331;28;20465;-58
2022/09/04 00:43:05;;;;;;;21.10;16.65;;;16.40;99.90;;;;;;5117238;28;20059;-58
2022/09/04 00:45:34;;;;;;;25.08;16.60;;;16.30;99.90;;;;;;5117329;28;20024;-58
2022/09/04 00:48:19;;;;;;;27.10;16.00;;;16.30;99.90;;;;;;5117162;28;20057;-58
2022/09/04 00:51:13;;;;;;;24.92;16.25;;;16.30;99.90;;;;;;5117139;28;20463;-58
2022/09/04 00:54:16;;;;;;;22.70;16.00;;;16.20;99.90;;;;;;5117131;28;20028;-58
2022/09/04 00:57:05;;;;;;;22.65;16.27;;;16.20;99.90;;;;;;5117056;27;20040;-58
2022/09/04 00:59:52;;;;;;;20.70;16.17;;;16.30;99.90;;;;;;5117028;28;20031;-58
2022/09/04 01:02:36;;;;;;;20.42;15.27;;;16.30;99.90;;;;;;5096332;28;20064;-58
2022/09/04 01:05:19;;;;;;;22.30;15.52;;;16.30;99.90;;;;;;5096629;28;20035;-58
2022/09/04 01:08:14;;;;;;;22.73;15.85;;;16.20;99.90;;;;;;5096453;28;20075;-58
2022/09/04 01:10:50;;;;;;;21.85;15.52;;;16.30;99.90;;;;;;5095179;28;20036;-57
2022/09/04 01:13:54;;;;;;;26.55;15.90;;;16.30;99.90;;;;;;5096354;28;20028;-58
2022/09/04 01:17:04;;;;;;;21.90;15.18;;;16.20;99.90;;;;;;5073053;28;20117;-58
2022/09/04 01:19:48;;;;;;;19.88;14.45;;;16.10;99.90;;;;;;5096196;28;20474;-58
2022/09/04 01:22:20;;;;;;;20.75;14.88;;;16.10;99.90;;;;;;5096183;28;20039;-58
2022/09/04 01:25:03;;;;;;;18.77;15.13;;;16.10;99.90;;;;;;5096107;28;20424;-58
2022/09/04 01:27:59;;;;;;;22.30;15.57;;;16.10;99.90;;;;;;5096106;28;20100;-58
2022/09/04 01:30:25;;;;;;;22.70;15.35;;;16.10;99.90;;;;;;5096171;28;20030;-58
2022/09/04 01:33:35;;;;;;;22.90;15.45;;;16.10;99.90;;;;;;5095909;28;20028;-58
2022/09/04 01:36:05;;;;;;;22.45;15.95;;;16.10;99.90;;;;;;5053416;28;20032;-58
2022/09/04 01:38:50;;;;;;;25.17;15.75;;;16.10;99.90;;;;;;5053270;28;20029;-58
2022/09/04 01:41:36;;;;;;;19.75;15.85;;;16.10;99.90;;;;;;5053217;28;20130;-58
2022/09/04 01:44:08;;;;;;;25.83;17.05;;;16.10;99.90;;;;;;5052979;28;20087;-58
2022/09/04 01:46:58;;;;;;;25.73;16.00;;;16.10;99.90;;;;;;5053099;28;20036;-58
2022/09/04 01:49:35;;;;;;;23.13;16.55;;;16.00;99.90;;;;;;5052993;28;20075;-58
2022/09/04 01:52:07;;;;;;;23.45;16.08;;;16.00;99.90;;;;;;5052974;28;20029;-58
2022/09/04 01:54:39;;;;;;;27.88;16.05;;;16.00;99.90;;;;;;5052890;28;20048;-58
2022/09/04 01:57:30;;;;;;;26.08;16.20;;;16.00;99.90;;;;;;5053006;28;20033;-58
2022/09/04 02:00:14;;;;;;;20.88;16.05;;;16.00;99.90;;;;;;5055168;28;20051;-58
2022/09/04 02:03:09;;;;;;;19.75;15.98;;;16.00;99.90;;;;;;5072748;28;20036;-57
2022/09/04 02:06:00;;;;;;;20.83;15.15;;;15.90;99.90;;;;;;5072813;28;20029;-58
2022/09/04 02:08:41;;;;;;;;;;;16.00;99.90;;;;;;5116112;28;20028;-58
2022/09/04 02:11:11;;;;;;;24.15;15.52;;;16.00;99.90;;;;;;5115701;27;19951;-58
2022/09/04 02:13:46;;;;;;;23.27;15.48;;;16.10;99.90;;;;;;5115610;28;20045;-58
2022/09/04 02:16:32;;;;;;;18.80;15.13;;;16.10;99.90;;;;;;5115652;28;20036;-58
2022/09/04 02:19:16;;;;;;;24.02;16.08;;;16.10;99.90;;;;;;5115540;28;20027;-58
2022/09/04 02:21:54;;;;;;;18.45;16.15;;;16.00;99.90;;;;;;5115167;28;20464;-58
2022/09/04 02:24:25;;;;;;;26.88;16.10;;;16.00;99.90;;;;;;5115513;28;20023;-58
2022/09/04 02:27:30;;;;;;;20.20;15.15;;;16.00;99.90;;;;;;5115527;28;20080;-57
2022/09/04 02:30:09;;;;;;;28.83;15.13;;;16.00;99.90;;;;;;5074266;28;20465;-58
2022/09/04 02:32:38;;;;;;;26.08;14.98;;;16.00;99.90;;;;;;5115458;28;20030;-58
2022/09/04 02:35:23;;;;;;;23.33;15.43;;;16.10;99.90;;;;;;5115300;28;20420;-58
2022/09/04 02:38:01;;;;;;;26.10;15.32;;;16.10;99.90;;;;;;5115276;28;20032;-58
2022/09/04 02:40:35;;;;;;;23.58;15.52;;;16.10;99.90;;;;;;5115082;28;20477;-58
2022/09/04 02:43:31;;;;;;;25.13;16.33;;;16.10;99.90;;;;;;5113857;28;20019;-58
2022/09/04 02:46:20;;;;;;;25.20;15.80;;;16.10;99.90;;;;;;5115218;28;20031;-58
2022/09/04 02:49:06;;;;;;;22.80;16.35;;;16.00;99.90;;;;;;5114686;28;20385;-58
2022/09/04 02:51:55;;;;;;;22.75;15.10;;;16.00;99.90;;;;;;5074600;28;20102;-58
2022/09/04 02:54:42;;;;;;;21.60;15.40;;;16.00;99.90;;;;;;5074782;28;20490;-58
2022/09/04 02:57:27;;;;;;;21.45;15.85;;;16.10;99.90;;;;;;5074486;28;20032;-57
2022/09/04 03:00:18;;;;;;;22.55;16.20;;;16.10;99.90;;;;;;5074444;28;20477;-57
2022/09/04 03:03:05;;;;;;;26.42;16.92;;;16.10;99.90;;;;;;5074252;28;20036;-57
2022/09/04 03:05:50;;;;;;;25.42;15.70;;;16.00;99.90;;;;;;5074396;28;20090;-58
2022/09/04 03:08:35;;;;;;;23.00;15.32;;;16.10;99.90;;;;;;5074398;28;20036;-58
2022/09/04 03:11:22;;;;;;;23.15;15.55;;;16.10;99.90;;;;;;5074456;28;20085;-58
2022/09/04 03:13:58;;;;;;;24.02;14.35;;;16.10;99.90;;;;;;5074325;28;20063;-57
2022/09/04 03:16:36;;;;;;;20.38;14.93;;;16.00;99.90;;;;;;5074351;28;20025;-57
2022/09/04 03:19:14;;;;;;;17.95;15.75;;;16.00;99.90;;;;;;5074192;28;20043;-57
2022/09/04 03:21:49;;;;;;;18.20;14.68;;;16.10;99.90;;;;;;5074013;28;20112;-57
2022/09/04 03:24:32;;;;;;;25.30;15.60;;;16.20;99.90;;;;;;5074139;28;20036;-58
2022/09/04 03:27:04;;;;;;;19.23;15.40;;;16.10;99.90;;;;;;5074205;28;20025;-57
2022/09/04 03:29:45;;;;;;;20.90;15.52;;;16.10;99.90;;;;;;5074120;28;20111;-57
2022/09/04 03:32:27;;;;;;;19.17;15.23;;;16.10;99.90;;;;;;5073959;28;20025;-57
2022/09/04 03:35:21;;;;;;;22.40;15.50;;;16.00;99.90;;;;;;5074208;28;20028;-57
2022/09/04 03:38:01;;;;;;;29.17;16.23;;;16.00;99.90;;;;;;5074133;28;20482;-58
2022/09/04 03:40:44;;;;;;;23.15;15.35;;;16.10;99.90;;;;;;5073772;28;20368;-57
2022/09/04 03:43:36;;;;;;;23.80;15.45;;;16.20;99.90;;;;;;5074106;28;20040;-57
2022/09/04 03:46:25;;;;;;;21.23;14.50;;;16.20;99.90;;;;;;5073992;28;20017;-57
2022/09/04 03:49:04;;;;;;;23.98;15.55;;;16.20;99.90;;;;;;5073880;28;20055;-57
2022/09/04 03:51:33;;;;;;;29.92;15.23;;;16.10;99.90;;;;;;5074141;28;20045;-57
2022/09/04 03:54:06;;;;;;;21.63;15.13;;;16.00;99.90;;;;;;5073893;28;20551;-58
2022/09/04 03:56:41;;;;;;;25.98;15.23;;;16.00;99.90;;;;;;5073824;28;20540;-57
2022/09/04 03:59:17;;;;;;;21.40;16.23;;;16.10;99.90;;;;;;5074347;28;20032;-57
2022/09/04 04:02:11;;;;;;;23.65;16.30;;;16.00;99.90;;;;;;5077114;28;20082;-57
2022/09/04 04:05:02;;;;;;;25.73;17.02;;;16.00;99.90;;;;;;5077501;28;20028;-57
2022/09/04 04:07:50;;;;;;;25.92;17.52;;;16.10;99.90;;;;;;5077181;28;20028;-57
2022/09/04 04:10:29;;;;;;;29.83;16.85;;;16.00;99.90;;;;;;5077365;28;20496;-57
2022/09/04 04:13:25;;;;;;;25.65;17.40;;;16.00;99.90;;;;;;5077232;28;20121;-57
2022/09/04 04:15:54;;;;;;;21.83;17.42;;;16.00;99.90;;;;;;5077276;28;20449;-58
2022/09/04 04:18:45;;;;;;;28.65;18.77;;;16.00;99.90;;;;;;5077310;28;20035;-57
2022/09/04 04:21:35;;;;;;;28.85;20.25;;;16.00;99.90;;;;;;5076980;28;20040;-57
2022/09/04 04:24:27;;;;;;;28.08;18.17;;;16.00;99.90;;;;;;5077126;28;20020;-57
2022/09/04 04:27:11;;;;;;;22.95;17.13;;;16.00;99.90;;;;;;5077092;28;20035;-57
2022/09/04 04:30:02;;;;;;;25.08;16.65;;;16.00;99.90;;;;;;5077015;28;20029;-57
2022/09/04 04:33:04;;;;;;;20.48;16.45;;;16.00;99.90;;;;;;5076882;28;20029;-57
2022/09/04 04:35:48;;;;;;;22.38;16.08;;;16.00;99.90;;;;;;5076977;28;20175;-57
2022/09/04 04:38:23;;;;;;;23.08;16.48;;;16.10;99.90;;;;;;5076825;28;20558;-58
2022/09/04 04:41:23;;;;;;;24.17;15.98;;;16.20;99.90;;;;;;5076702;28;20081;-57
2022/09/04 04:44:02;;;;;;;24.33;15.43;;;16.20;99.90;;;;;;5076798;28;20025;-57
2022/09/04 04:46:46;;;;;;;24.73;15.18;;;16.20;99.90;;;;;;5076635;28;20028;-57
2022/09/04 04:49:47;;;;;;;21.20;15.07;;;16.20;99.90;;;;;;5081927;28;20204;-57
2022/09/04 04:52:39;;;;;;;17.17;13.80;;;16.30;99.90;;;;;;5117192;28;20032;-58
2022/09/04 04:55:11;;;;;;;25.77;14.70;;;16.30;99.90;;;;;;5117235;28;20106;-57
2022/09/04 04:58:16;;;;;;;21.25;15.20;;;16.30;99.90;;;;;;5116976;28;20020;-57
2022/09/04 05:01:04;;;;;;;23.50;16.40;;;16.30;99.90;;;;;;5116984;28;20084;-57
2022/09/04 05:03:48;;;;;;;23.05;16.50;;;16.40;99.90;;;;;;5116934;28;20084;-57
2022/09/04 05:06:27;;;;;;;37.92;25.85;;;16.40;99.90;;;;;;5115544;28;20356;-57
2022/09/04 05:08:56;;;;;;;25.40;17.80;;;16.40;99.90;;;;;;5117216;28;20027;-58
2022/09/04 05:11:50;;;;;;;39.30;23.13;;;16.40;99.90;;;;;;5116399;28;20035;-57
2022/09/04 05:14:34;;;;;;;20.90;16.23;;;16.50;99.90;;;;;;5116797;27;20027;-57
2022/09/04 05:17:39;;;;;;;21.10;14.95;;;16.50;99.90;;;;;;5116702;28;20385;-57
2022/09/04 05:20:28;;;;;;;23.65;15.93;;;16.60;99.90;;;;;;5116302;28;20047;-57
2022/09/04 05:23:21;;;;;;;23.33;15.98;;;16.70;99.90;;;;;;5116700;28;20476;-57
2022/09/04 05:26:18;;;;;;;20.23;14.15;;;16.70;99.90;;;;;;5116825;28;20023;-57
2022/09/04 05:29:08;;;;;;;22.58;14.15;;;16.70;99.90;;;;;;5092442;28;20036;-58
2022/09/04 05:31:40;;;;;;;21.13;13.65;;;16.70;99.90;;;;;;5116430;28;20031;-57
2022/09/04 05:34:09;;;;;;;23.88;15.80;;;16.80;99.90;;;;;;5116388;28;20225;-57
2022/09/04 05:36:48;;;;;;;25.35;15.30;;;16.80;99.90;;;;;;5116480;28;20036;-57
2022/09/04 05:39:26;;;;;;;21.95;15.65;;;16.90;99.90;;;;;;5116236;28;20028;-57
2022/09/04 05:42:31;;;;;;;21.45;14.73;;;16.90;99.90;;;;;;5116103;28;20488;-57
2022/09/04 05:45:06;;;;;;;22.70;15.20;;;16.90;99.90;;;;;;5116111;28;20031;-57
2022/09/04 05:48:03;;;;;;;21.45;14.30;;;16.90;99.90;;;;;;5116026;28;20028;-57
2022/09/04 05:50:52;;;;;;;22.38;15.05;;;16.90;99.90;;;;;;5115874;28;20054;-57
2022/09/04 05:53:43;;;;;;;17.77;14.23;;;17.00;99.90;;;;;;5115943;28;20088;-58
2022/09/04 05:56:44;;;;;;;22.08;15.77;;;17.10;99.90;;;;;;5115747;28;20426;-57
2022/09/04 05:59:31;;;;;;;23.35;16.05;;;17.20;99.90;;;;;;5095897;28;20035;-57
2022/09/04 06:02:19;;;;;;;20.42;16.30;;;17.40;99.90;;;;;;5115567;28;20027;-57
2022/09/04 06:05:03;;;;;;;20.20;16.15;;;17.50;99.90;;;;;;5115838;28;20024;-58
2022/09/04 06:07:59;;;;;;;29.50;18.42;;;17.60;99.90;;;;;;5115672;28;20024;-57
2022/09/04 06:10:49;;;;;;;24.65;17.77;;;17.50;99.90;;;;;;5115751;28;20019;-57
2022/09/04 06:13:33;;;;;;;29.02;18.30;;;17.50;99.90;;;;;;5115630;28;20034;-57
2022/09/04 06:16:20;;;;;;;32.67;18.75;;;17.60;99.90;;;;;;5115574;28;20053;-57
2022/09/04 06:19:17;;;;;;;29.70;16.95;;;17.60;99.90;;;;;;5115568;28;20030;-58
2022/09/04 06:22:00;;;;;;;28.63;17.83;;;17.90;99.90;;;;;;5115188;28;20419;-58
2022/09/04 06:25:07;;;;;;;31.63;18.05;;;18.00;99.90;;;;;;5115015;28;20467;-58
2022/09/04 06:27:54;;;;;;;25.00;17.90;;;18.10;99.90;;;;;;5115467;28;20051;-57
2022/09/04 06:30:20;;;;;;;26.38;17.73;;;18.20;99.90;;;;;;5114085;28;20054;-58
2022/09/04 06:33:11;;;;;;;23.73;16.02;;;18.30;99.90;;;;;;5115195;28;20044;-57
2022/09/04 06:35:58;;;;;;;26.30;15.90;;;18.60;99.90;;;;;;5115205;28;20481;-58
2022/09/04 06:38:49;;;;;;;32.97;16.48;;;18.60;99.90;;;;;;5115224;28;20020;-58
2022/09/04 06:41:43;;;;;;;32.15;16.27;;;18.80;99.90;;;;;;5115052;28;20036;-57
2022/09/04 06:44:46;;;;;;;32.42;15.85;;;18.80;99.90;;;;;;5115228;28;20024;-57
2022/09/04 06:47:36;;;;;;;28.50;15.73;;;19.00;99.90;;;;;;5115032;28;20031;-57
2022/09/04 06:50:05;;;;;;;28.33;16.10;;;19.00;99.90;;;;;;5114794;28;20044;-57
2022/09/04 06:53:12;;;;;;;26.52;15.93;;;19.10;99.90;;;;;;5114865;28;20546;-58
2022/09/04 06:55:49;;;;;;;28.50;17.02;;;19.20;99.90;;;;;;5087425;28;20047;-58
2022/09/04 06:58:23;;;;;;;29.40;15.43;;;19.20;99.90;;;;;;5114934;28;20027;-57
2022/09/04 07:01:07;;;;;;;32.05;17.13;;;19.30;99.90;;;;;;5114836;28;20078;-57
2022/09/04 07:03:39;;;;;;;23.38;15.07;;;19.40;99.90;;;;;;5114996;28;20477;-58
2022/09/04 07:06:27;;;;;;;22.38;14.63;;;19.50;99.90;;;;;;5114863;28;20027;-58
2022/09/04 07:09:30;;;;;;;28.58;13.80;;;19.30;99.90;;;;;;5114887;28;20407;-58
2022/09/04 07:12:38;;;;;;;25.52;16.05;;;19.40;99.90;;;;;;5114223;28;20046;-58
2022/09/04 07:15:23;;;;;;;27.00;14.45;;;19.40;99.90;;;;;;5114906;28;20101;-58
2022/09/04 07:18:17;;;;;;;24.80;14.40;;;19.50;99.90;;;;;;5114795;28;20383;-58
2022/09/04 07:21:14;;;;;;;25.63;14.23;;;19.60;99.90;;;;;;5114516;28;20031;-58
2022/09/04 07:24:04;;;;;;;24.98;16.08;;;19.60;99.90;;;;;;5114633;28;20382;-58
2022/09/04 07:26:40;;;;;;;31.85;17.48;;;19.70;99.90;;;;;;5114801;28;20023;-58
2022/09/04 07:29:34;;;;;;;28.98;15.85;;;19.70;99.90;;;;;;5114760;28;20099;-58
2022/09/04 07:32:38;;;;;;;26.40;16.27;;;19.60;99.90;;;;;;5112368;28;20040;-58
2022/09/04 07:35:34;;;;;;;26.13;16.50;;;19.50;99.90;;;;;;5117546;28;20031;-58
2022/09/04 07:38:20;;;;;;;28.15;15.68;;;19.60;99.90;;;;;;5118868;28;20028;-58
2022/09/04 07:40:58;;;;;;;26.83;15.82;;;19.70;99.90;;;;;;5118334;28;20027;-58
2022/09/04 07:43:51;;;;;;;25.17;15.15;;;19.70;99.90;;;;;;5118598;28;20107;-58
2022/09/04 07:46:53;;;;;;;23.08;15.30;;;19.60;99.90;;;;;;5117373;28;20124;-58
2022/09/04 07:49:25;;;;;;;27.70;15.90;;;19.70;99.90;;;;;;5118231;28;20032;-58
2022/09/04 07:52:08;;;;;;;28.08;16.33;;;19.90;99.90;;;;;;5118213;28;20091;-58
2022/09/04 07:54:34;;;;;;;22.25;14.57;;;19.90;99.90;;;;;;5118373;28;20027;-58
2022/09/04 07:57:12;;;;;;;22.05;15.27;;;20.00;99.90;;;;;;5118062;28;20169;-58
2022/09/04 08:00:12;;;;;;;33.33;15.40;;;20.10;99.90;;;;;;5118323;27;20031;-57
2022/09/04 08:03:18;;;;;;;27.50;14.32;;;20.20;99.90;;;;;;5097669;28;20028;-58
2022/09/04 08:05:50;;;;;;;24.25;14.48;;;20.40;99.90;;;;;;5081315;28;20381;-58
2022/09/04 08:08:54;;;;;;;22.10;14.75;;;20.50;99.90;;;;;;5097635;28;20039;-58
2022/09/04 08:11:23;;;;;;;27.30;14.32;;;20.70;99.90;;;;;;5097598;28;20035;-58
2022/09/04 08:13:59;;;;;;;25.42;14.32;;;20.90;99.90;;;;;;5097576;28;20529;-57
2022/09/04 08:16:41;;;;;;;22.13;14.02;;;21.00;99.90;;;;;;5097480;28;20263;-58
2022/09/04 08:19:49;;;;;;;22.83;14.30;;;21.00;99.90;;;;;;5097556;28;20031;-58
2022/09/04 08:22:51;;;;;;;23.33;13.60;;;21.20;99.90;;;;;;5059583;28;20154;-58
2022/09/04 08:25:45;;;;;;;17.90;12.88;;;21.40;99.90;;;;;;5059772;28;20045;-58
2022/09/04 08:28:32;;;;;;;24.65;13.38;;;21.50;99.90;;;;;;5097157;28;20439;-58
2022/09/04 08:31:19;;;;;;;27.05;14.43;;;21.60;99.90;;;;;;5096997;28;20107;-58
2022/09/04 08:34:07;;;;;;;32.88;16.70;;;21.60;99.90;;;;;;5097156;28;20085;-58
2022/09/04 08:37:01;;;;;;;24.08;13.90;;;21.80;99.90;;;;;;5097135;28;20028;-58
2022/09/04 08:40:00;;;;;;;26.83;14.52;;;22.00;99.90;;;;;;5097018;28;20036;-58
2022/09/04 08:42:51;;;;;;;26.25;14.00;;;22.10;99.90;;;;;;5079193;28;20056;-58
2022/09/04 08:45:59;;;;;;;27.25;14.15;;;21.90;99.90;;;;;;5096352;28;20040;-58
2022/09/04 08:48:47;;;;;;;25.30;14.23;;;22.00;99.90;;;;;;5077326;28;20040;-58
2022/09/04 08:51:28;;;;;;;27.30;14.18;;;22.00;99.90;;;;;;5096430;28;20154;-58
2022/09/04 08:54:13;;;;;;;24.83;13.73;;;22.10;99.90;;;;;;5096827;28;20077;-58
2022/09/04 08:56:57;;;;;;;25.55;14.35;;;22.00;99.90;;;;;;5096693;28;20385;-58
2022/09/04 08:59:29;;;;;;;24.27;13.60;;;22.20;99.90;;;;;;5096624;28;20031;-58
2022/09/04 09:02:27;;;;;;;29.30;12.93;;;22.50;99.90;;;;;;5115709;28;20031;-58
2022/09/04 09:05:02;;;;;;;25.98;12.55;;;22.80;99.90;;;;;;5116800;28;20067;-58
2022/09/04 09:07:46;;;;;;;32.17;13.98;;;23.50;99.90;;;;;;5116829;28;20038;-58
2022/09/04 09:10:49;;;;;;;28.50;12.85;;;24.10;99.90;;;;;;5116899;28;20024;-58
2022/09/04 09:14:00;;;;;;;19.23;12.07;;;24.90;99.90;;;;;;5116673;28;20032;-58
2022/09/04 09:16:32;;;;;;;25.83;12.98;;;24.80;97.80;;;;;;5085170;27;20038;-58
2022/09/04 09:19:23;;;;;;;19.38;12.48;;;24.90;99.90;;;;;;5116677;28;20059;-58
2022/09/04 09:22:26;;;;;;;24.00;13.38;;;24.80;98.00;;;;;;5116496;28;20477;-58
2022/09/04 09:25:10;;;;;;;23.52;12.93;;;25.00;95.90;;;;;;5116697;28;20024;-58
2022/09/04 09:28:17;;;;;;;26.13;12.40;;;25.10;96.80;;;;;;5115224;28;20027;-58
2022/09/04 09:31:07;;;;;;;17.75;11.02;;;25.10;96.40;;;;;;5093386;28;20043;-58
2022/09/04 09:34:10;;;;;;;21.30;12.02;;;25.00;95.60;;;;;;5116407;28;20028;-58
2022/09/04 09:37:09;;;;;;;23.02;11.98;;;24.90;96.00;;;;;;5116454;28;20058;-58
2022/09/04 09:40:04;;;;;;;17.77;12.02;;;25.00;93.80;;;;;;5116372;28;20059;-58
2022/09/04 09:42:34;;;;;;;25.98;13.15;;;24.90;94.80;;;;;;5042844;28;20065;-58
2022/09/04 09:45:30;;;;;;;26.85;13.13;;;24.90;94.70;;;;;;5116129;28;20031;-58
2022/09/04 09:48:16;;;;;;;32.78;14.02;;;24.80;94.90;;;;;;5116192;28;20679;-58
2022/09/04 09:51:38;;;;;;;31.48;15.60;;;24.80;95.20;;;;;;5101854;28;20051;-58
2022/09/04 09:54:15;;;;;;;30.05;14.10;;;25.00;95.50;;;;;;5042910;28;20131;-58
2022/09/04 09:56:54;;;;;;;36.00;14.60;;;24.80;96.90;;;;;;5115568;28;20038;-58
2022/09/04 09:59:20;;;;;;;27.90;15.35;;;25.20;95.80;;;;;;5114129;28;20490;-58
2022/09/04 10:02:27;;;;;;;26.52;14.82;;;25.50;94.70;;;;;;5115542;28;20055;-58
2022/09/04 10:04:59;;;;;;;28.40;13.98;;;25.80;94.70;;;;;;5052680;28;20033;-58
2022/09/04 10:07:36;;;;;;;34.47;16.23;;;26.10;93.70;;;;;;5052686;28;20025;-58
2022/09/04 10:10:23;;;;;;;25.48;15.13;;;26.40;91.90;;;;;;5052548;28;20071;-58
2022/09/04 10:13:33;;;;;;;30.27;15.25;;;26.40;90.80;;;;;;5052670;28;20025;-58
2022/09/04 10:16:11;;;;;;;23.02;14.35;;;26.20;90.70;;;;;;4993183;28;20045;-58
2022/09/04 10:19:35;;;;;;;27.75;15.75;;;26.10;92.80;;;;;;5044831;28;20068;-58
2022/09/04 10:22:19;;;;;;;35.13;14.05;;;25.90;94.40;;;;;;4992901;28;20038;-58
2022/09/04 10:25:04;;;;;;;20.38;13.35;;;25.80;94.00;;;;;;5049173;28;20036;-58
2022/09/04 10:27:45;;;;;;;30.58;14.90;;;25.60;95.00;;;;;;5052287;28;20068;-58
2022/09/04 10:30:20;;;;;;;26.75;16.75;;;25.10;96.60;;;;;;5052026;28;20041;-58
2022/09/04 10:33:03;;;;;;;31.58;18.63;;;25.10;97.00;;;;;;5052274;28;20111;-58
2022/09/04 10:35:40;;;;;;;46.17;20.63;;;25.20;98.30;;;;;;5078409;28;20118;-58
2022/09/04 10:38:35;;;;;;;34.22;20.73;;;25.10;99.70;;;;;;5115267;28;20023;-58
2022/09/04 10:41:27;;;;;;;45.88;21.33;;;25.30;97.50;;;;;;5109219;28;20047;-58
2022/09/04 10:44:03;;;;;;;54.10;29.48;;;25.30;97.50;;;;;;5115202;28;20020;-58
2022/09/04 10:46:51;;;;;;;44.70;25.08;;;25.90;99.80;;;;;;5115138;28;20027;-58
2022/09/04 10:49:32;;;;;;;44.47;23.92;;;26.20;95.90;;;;;;5114951;28;20432;-58
2022/09/04 10:52:20;;;;;;;28.90;17.40;;;26.50;94.20;;;;;;5114969;28;20032;-58
2022/09/04 10:55:17;;;;;;;30.60;17.92;;;26.70;91.20;;;;;;5115017;28;20032;-58
2022/09/04 10:58:02;;;;;;;28.20;16.98;;;26.20;95.40;;;;;;5093249;28;20050;-58
2022/09/04 11:00:38;;;;;;;31.40;17.13;;;26.40;92.10;;;;;;5114764;28;20469;-58
2022/09/04 11:03:34;;;;;;;28.70;17.65;;;26.70;92.70;;;;;;5114914;28;20089;-58
2022/09/04 11:06:33;;;;;;;31.45;19.10;;;26.40;91.00;;;;;;5114808;28;20074;-58
2022/09/04 11:09:20;;;;;;;27.27;18.40;;;26.20;92.50;;;;;;5115967;28;20111;-58
2022/09/04 11:11:46;;;;;;;32.50;20.25;;;26.50;90.70;;;;;;5119152;28;20544;-58
2022/09/04 11:14:33;;;;;;;34.67;19.58;;;26.50;90.80;;;;;;5118931;28;20077;-58
2022/09/04 11:17:18;;;;;;;32.58;18.77;;;26.40;91.30;;;;;;5118965;28;20027;-58
2022/09/04 11:20:15;;;;;;;32.00;18.55;;;26.50;90.80;;;;;;5119014;28;20496;-58
2022/09/04 11:23:28;;;;;;;27.70;18.90;;;26.70;91.40;;;;;;5118906;28;20039;-59
2022/09/04 11:26:12;;;;;;;36.92;20.10;;;26.70;88.90;;;;;;5119022;28;20459;-58
2022/09/04 11:28:46;;;;;;;30.85;17.88;;;26.60;91.30;;;;;;5118741;28;20026;-58
2022/09/04 11:31:47;;;;;;;34.13;19.67;;;26.50;90.80;;;;;;5118704;28;20035;-59
2022/09/04 11:35:01;;;;;;;30.05;20.00;;;26.50;89.00;;;;;;5073353;28;20039;-59
2022/09/04 11:37:55;;;;;;;32.13;19.48;;;26.40;87.80;;;;;;5118678;28;20039;-58
2022/09/04 11:41:00;;;;;;;39.78;23.52;;;26.30;90.30;;;;;;5118679;28;20051;-58
2022/09/04 11:43:51;;;;;;;38.63;23.50;;;26.40;91.80;;;;;;5103634;28;20039;-58
2022/09/04 11:46:25;;;;;;;35.40;22.10;;;26.40;92.80;;;;;;5118554;28;20023;-58
2022/09/04 11:49:37;;;;;;;32.03;21.05;;;26.30;95.00;;;;;;5118454;28;20022;-59
2022/09/04 11:52:22;;;;;;;34.00;20.77;;;26.70;92.60;;;;;;5098841;28;20048;-58
2022/09/04 11:55:13;;;;;;;35.63;22.80;;;27.00;92.30;;;;;;5118399;28;20097;-59
2022/09/04 11:57:38;;;;;;;;;;;27.00;91.00;;;;;;5118675;27;20027;-58
2022/09/04 12:00:11;;;;;;;33.83;21.90;;;27.30;91.40;;;;;;5118300;28;20292;-59
2022/09/04 12:02:36;;;;;;;37.38;21.80;;;27.10;89.60;;;;;;5118075;28;20397;-59
2022/09/04 12:05:23;;;;;;;34.78;21.00;;;27.00;91.00;;;;;;5118148;28;20039;-59
2022/09/04 12:08:27;;;;;;;38.25;22.35;;;26.90;90.50;;;;;;5118219;28;20023;-59
2022/09/04 12:11:09;;;;;;;43.80;26.63;;;26.80;90.90;;;;;;5118017;28;20404;-59
2022/09/04 12:13:54;;;;;;;44.97;27.40;;;26.80;90.70;;;;;;5118339;28;20080;-59
2022/09/04 12:16:48;;;;;;;50.15;29.13;;;26.60;90.90;;;;;;5117856;28;20069;-59
2022/09/04 12:19:49;;;;;;;47.72;28.73;;;26.60;92.60;;;;;;5117623;28;20031;-58
2022/09/04 12:22:30;;;;;;;62.95;33.30;;;26.60;92.30;;;;;;5115704;28;20036;-59
2022/09/04 12:25:17;;;;;;;66.90;35.42;;;26.20;92.60;;;;;;5117713;28;20020;-59
2022/09/04 12:28:19;;;;;;;62.90;33.65;;;26.00;94.00;;;;;;5117523;28;20485;-58
2022/09/04 12:30:57;;;;;;;60.72;33.83;;;26.00;95.20;;;;;;5071682;28;20046;-58
2022/09/04 12:34:08;;;;;;;59.25;32.80;;;26.10;95.00;;;;;;5117547;28;20027;-58
2022/09/04 12:37:12;;;;;;;51.55;32.28;;;26.30;95.40;;;;;;5113541;28;20040;-59
2022/09/04 12:39:52;;;;;;;53.03;30.83;;;26.50;94.00;;;;;;5117404;28;20028;-59
2022/09/04 12:42:33;;;;;;;50.97;28.05;;;26.40;94.10;;;;;;5117339;28;20028;-58
2022/09/04 12:44:59;;;;;;;;;;;26.30;95.20;;;;;;5117874;28;20085;-59
2022/09/04 12:47:46;;;;;;;22.13;10.95;;;26.00;91.00;;;;;;5117284;28;19916;-59
2022/09/04 12:50:18;;;;;;;19.98;10.82;;;26.00;86.10;;;;;;5117171;28;20051;-59
2022/09/04 12:52:53;;;;;;;12.77;8.48;;;25.50;91.30;;;;;;5117059;28;20106;-59
2022/09/04 12:55:28;;;;;;;9.65;7.18;;;25.60;92.40;;;;;;5117003;28;20556;-59
2022/09/04 12:58:30;;;;;;;8.48;5.75;;;25.40;95.90;;;;;;5117188;27;20027;-58
2022/09/04 13:00:58;;;;;;;7.90;5.57;;;25.00;97.20;;;;;;5116859;28;20496;-58
2022/09/04 13:03:31;;;;;;;6.75;5.68;;;24.60;98.10;;;;;;5117050;28;20465;-58
2022/09/04 13:06:38;;;;;;;9.10;5.95;;;24.60;98.60;;;;;;5116971;28;20054;-59
2022/09/04 13:09:29;;;;;;;8.45;6.50;;;24.70;98.30;;;;;;5116830;28;20032;-59
2022/09/04 13:12:08;;;;;;;8.85;6.13;;;24.80;97.40;;;;;;5116787;28;20031;-58
2022/09/04 13:14:52;;;;;;;15.02;7.38;;;24.90;98.40;;;;;;5116996;28;20035;-58
2022/09/04 13:17:27;;;;;;;18.80;13.25;;;24.80;97.60;;;;;;5116686;28;20527;-58
2022/09/04 13:20:21;;;;;;;20.23;13.38;;;24.80;97.40;;;;;;5116498;28;20493;-58
2022/09/04 13:23:09;;;;;;;18.88;12.65;;;25.20;97.70;;;;;;5102973;28;20109;-58
2022/09/04 13:26:02;;;;;;;18.80;13.82;;;25.30;96.40;;;;;;5116597;28;20028;-58
2022/09/04 13:29:07;;;;;;;21.52;12.10;;;25.30;95.80;;;;;;5116582;28;20027;-58
2022/09/04 13:31:48;;;;;;;19.20;12.45;;;25.10;95.10;;;;;;5116117;28;20028;-58
2022/09/04 13:34:22;;;;;;;16.33;11.20;;;24.90;96.10;;;;;;5116334;28;20132;-58
2022/09/04 13:37:33;;;;;;;18.17;12.23;;;25.00;95.60;;;;;;5116297;28;20070;-58
2022/09/04 13:40:11;;;;;;;19.83;14.20;;;24.70;96.50;;;;;;5116137;28;20072;-58
2022/09/04 13:42:53;;;;;;;18.75;14.80;;;24.60;97.00;;;;;;5116080;28;20028;-58
2022/09/04 13:45:38;;;;;;;23.77;13.88;;;24.60;98.80;;;;;;5116325;28;20058;-58
2022/09/04 13:48:50;;;;;;;20.67;14.45;;;24.60;99.60;;;;;;5116025;28;20052;-58
2022/09/04 13:51:34;;;;;;;26.10;15.52;;;24.60;99.90;;;;;;5115993;28;20051;-58
2022/09/04 13:54:35;;;;;;;22.45;14.80;;;24.30;99.90;;;;;;5115994;28;20061;-58
2022/09/04 13:57:15;;;;;;;24.63;16.60;;;24.30;99.90;;;;;;5115925;28;20031;-58
2022/09/04 13:59:46;;;;;;;19.23;16.38;;;24.30;99.90;;;;;;5115858;28;20081;-58
2022/09/04 14:02:13;;;;;;;22.83;16.83;;;24.50;99.90;;;;;;5115787;28;20422;-58
2022/09/04 14:04:49;;;;;;;21.52;17.00;;;24.60;99.90;;;;;;5115791;28;20034;-58